Airport View

Enter AWOS ICAO identifier for current METAR.

ex. KFNL

KBDU 120612Z AUTO 00000KT 10SM CLR 02/M07 A2997 RMK AO2

12 Dec 2019 06:36

Frequency: 118.825

Phone: 303-541-9540

Other Area AWOS: KLMO - KEIK - KBJC - KFNL

TAF KBJC 120531Z 1206/1306 30014KT P6SM SKC FM121000 21010KT P6SM FEW100 SCT150 FM121400 18006KT P6SM SCT080 BKN120 FM121800 26014G21KT P6SM BKN080 FM130200 21008KT P6SM FEW080 SCT120